New Meadows, ID (83654)

6:34 PM MST on December 09, 2016 (GMT -0700)
| | Change Station
Active Advisory: Winter Weather Advisory

Elev -9999 ft 0.00 °N, 0.00 °E | Updated 15 minutes ago

Overcast
Overcast
53 °F
Feels Like 53 °F
N
5
Wind Variable Wind from North
Gusts mph

Today
High -- | Low -- °F
--% Chance of Precip.
Yesterday
High -- | Low -- °F
Precip. -- in
Pressure 29.93 in
Visibility 1.5 miles
Clouds Overcast 600 ft
Dew Point 34 °F
Humidity 47%
Rainfall --
Snow Depth Not available.
8:11 AM 5:03 PM
Waxing Gibbous, 79% visible
SPECI KMYL 100107Z AUTO 00000KT 1 1/2SM -SN BR OVC006 M02/M03 A2993 RMK AO2 P0001 T10221033
Pressure 29.93 in
Visibility 1.5 miles
Clouds Overcast 600 ft
Dew Point 34 °F
Humidity 47%
Rainfall --
Snow Depth Not available.
8:11 AM 5:03 PM
Waxing Gibbous, 79% visible
SPECI KMYL 100107Z AUTO 00000KT 1 1/2SM -SN BR OVC006 M02/M03 A2993 RMK AO2 P0001 T10221033

10-Day Weather Forecast

Almanac

Astronomy

Dec. 09, 2016 Rise Set
Actual Time
Civil Twilight
Nautical Twilight
Astronomical Twilight
Moon
Length of Visible Light
Length of Day
Tomorrow will be .
, % of the Moon is Illuminated

Today's Extremes

State Highs State Lows

Community

WunderPhotos

Upload Photos

1,956,534 photos uploaded!

WunderBlog® & News

Nearby

Air Quality

  Air Quality AQ Index Pollutant
Not available.

Snow Depth

Station Depth Elevation

Earthquake Activity

City Distance Mag. Time & Date
Minimum magnitude displayed is 2.5.

Coastal Water Temperatures

Place Temperature

Stations

Nearby Weather Stations

Station Location Temp. Windchill Dew Point Humidity Wind Precip. Elev Updated Type
                   

Watches & Warnings

Winter Weather Advisory
Issued: 5:01 PM MST Dec. 9, 2016 – National Weather Service

... Winter Weather Advisory remains in effect until 11 am MST
Saturday...

* snow amounts... additional 2 to 6 inches in mountain valleys and
8 to 14 inches above 6000 feet through Saturday morning.

* Impacts... snow accumulation on roads will make driving
difficult.

Precautionary/preparedness actions...

A Winter Weather Advisory means that periods of snow... sleet... or
freezing rain will cause travel difficulties. Be prepared for
slippery roads and limited visibilities... and use caution while
driving.